Thida, Arkansas
Current Conditions -  °F | °C
As of 10:15 AM on Monday 24 Nov 2014 (Local Time) from KBVX Reporting Station
Clear Clear  
Wind Chill: 50°   Ceiling: Unl
Heat Index: 50°   Visibility: 10mi
Dew Point: 28°   Wind: 9mph
Humidity: 43%   Direction: 270°W
Pressure: 29.86"   Gusts: 22mph
Location:  35.57°N, 91.48°W
Report Text: KBVX 241615Z AUTO 27008G19KT 10SM CLR 10/M02 A2986 RMK AO1
Loading
Personal Weather Stations






























Interactive Weather Map New forecast layout! Learn more

10-Day Weather Forecast

Advertisements
Track Severe Weather on mobile